Archival Weather

Chicago O'Hare International

Chicago, Illinois (KORD)

Report from: Tuesday, December 27, 2022 8:51 AM CST
Current time: Saturday, June 22, 2024 3:43 AM CDT

Current weather – Weather history – Daily summaries
Weather forecast

Temperature-11.7°C (10.9°F)
Wind chill-19.2°C (-2.6°F)
Dew point-15.0°C (5.0°F)
Winds 9 kts (4.6 m/s, 10.4 mph) South-Southwest (210°)
Visibility10 mi. (16.1 km)
Clouds Ceiling: Broken clouds 18,000 ft. (5,486 m)
Broken clouds 25,000 ft. (7,620 m)
Altimeter30.17 in.Hg (1022 mB)
Relative humidity76 %
Density altitude-3,649 ft. (-1,112 m)
Sea-level pressure102.3 kPa (1023 mB, 30.21 in.Hg)
Remarks Automated weather observing station with precipitation discriminator
Pressure falling more quickly
Flight conditions Visual Meteorological Conditions
Raw dataKORD 271451Z 21009KT 10SM BKN180 BKN250 M12/M15 A3017 RMK AO2 SLP229 T11171150 58017
An error has occurred. This application may no longer respond until reloaded. Reload 🗙